createdAt,value
2023-05-13T00:02:08.390Z,101475.41
2023-05-13T00:04:35.041Z,101475.13
2023-05-13T00:07:01.792Z,101486.38
2023-05-13T00:09:28.426Z,101476.34
2023-05-13T00:11:55.013Z,101472.06
2023-05-13T00:14:21.998Z,101482.25
2023-05-13T00:16:48.650Z,101483.63
2023-05-13T00:19:15.433Z,101479.53
2023-05-13T00:21:42.145Z,101481.53
2023-05-13T00:24:08.796Z,101478.88
2023-05-13T00:26:35.435Z,101483.94
2023-05-13T00:29:02.059Z,101485.94
2023-05-13T00:31:28.838Z,101485.28
2023-05-13T00:33:55.498Z,101488.25
2023-05-13T00:36:22.104Z,101493.56
2023-05-13T00:38:48.769Z,101495.81
2023-05-13T00:41:15.483Z,101486.94
2023-05-13T00:43:42.064Z,101495.56
2023-05-13T00:46:08.793Z,101493.56
2023-05-13T00:48:35.549Z,101489.22
2023-05-13T00:51:02.313Z,101496.25
2023-05-13T00:53:29.588Z,101493.72
2023-05-13T00:55:56.389Z,101494.75
2023-05-13T00:58:23.005Z,101502.09
2023-05-13T01:01:26.970Z,101498.09
2023-05-13T01:04:16.518Z,101498.28
2023-05-13T01:06:58.274Z,101509.00
2023-05-13T01:09:41.064Z,101503.22
2023-05-13T01:12:11.304Z,101507.63
2023-05-13T01:14:57.188Z,101506.28
2023-05-13T01:17:32.284Z,101503.94
2023-05-13T01:20:03.463Z,101511.94
2023-05-13T01:22:30.150Z,101515.53
2023-05-13T01:24:56.922Z,101514.00
2023-05-13T01:27:23.727Z,101521.91
2023-05-13T01:29:50.761Z,101527.56
2023-05-13T01:32:18.954Z,101524.28
2023-05-13T01:34:47.107Z,101523.72
2023-05-13T01:37:13.850Z,101523.81
2023-05-13T01:39:41.655Z,101519.59
2023-05-13T01:42:08.592Z,101533.59
2023-05-13T01:44:35.810Z,101540.09
2023-05-13T01:47:02.442Z,101538.47
2023-05-13T01:49:29.031Z,101533.41
2023-05-13T01:51:55.834Z,101530.22
2023-05-13T01:54:22.396Z,101535.03
2023-05-13T01:56:49.095Z,101531.75
2023-05-13T01:59:16.022Z,101530.88
2023-05-13T02:01:42.856Z,101537.44
2023-05-13T02:04:09.465Z,101530.78
2023-05-13T02:06:36.274Z,101532.75
2023-05-13T02:09:03.180Z,101541.41
2023-05-13T02:11:29.827Z,101532.13
2023-05-13T02:13:56.511Z,101541.88
2023-05-13T02:16:23.186Z,101536.81
2023-05-13T02:18:49.839Z,101540.00
2023-05-13T02:21:16.536Z,101541.31
2023-05-13T02:23:43.209Z,101543.19
2023-05-13T02:26:09.807Z,101538.03
2023-05-13T02:28:36.834Z,101537.47
2023-05-13T02:31:03.444Z,101539.00
2023-05-13T02:33:30.045Z,101542.72
2023-05-13T02:35:56.649Z,101539.16
2023-05-13T02:38:23.259Z,101540.84
2023-05-13T02:40:49.867Z,101538.50
2023-05-13T02:43:16.469Z,101537.63
2023-05-13T02:45:43.851Z,101542.16
2023-05-13T02:48:11.177Z,101544.84
2023-05-13T02:50:38.023Z,101540.47
2023-05-13T02:53:04.595Z,101538.59
2023-05-13T02:55:31.277Z,101544.13
2023-05-13T02:57:57.908Z,101545.91
2023-05-13T03:00:24.589Z,101548.16
2023-05-13T03:02:51.352Z,101554.63
2023-05-13T03:05:18.019Z,101549.81
2023-05-13T03:07:44.620Z,101556.38
2023-05-13T03:10:11.214Z,101557.03
2023-05-13T03:12:37.891Z,101555.53
2023-05-13T03:15:04.773Z,101561.63
2023-05-13T03:17:32.105Z,101556.53
2023-05-13T03:19:58.754Z,101557.03
2023-05-13T03:22:25.351Z,101559.56
2023-05-13T03:24:51.953Z,101563.28
2023-05-13T03:27:19.315Z,101555.63
2023-05-13T03:29:45.891Z,101559.25
2023-05-13T03:32:12.460Z,101551.19
2023-05-13T03:34:39.254Z,101560.28
2023-05-13T03:37:05.921Z,101560.28
2023-05-13T03:39:32.529Z,101560.84
2023-05-13T03:41:59.279Z,101557.25
2023-05-13T03:44:26.273Z,101568.13
2023-05-13T03:46:52.873Z,101568.78
2023-05-13T03:49:19.654Z,101567.19
2023-05-13T03:51:46.292Z,101569.72
2023-05-13T03:54:12.877Z,101569.63
2023-05-13T03:56:39.431Z,101565.13
2023-05-13T03:59:06.016Z,101573.66
2023-05-13T04:01:32.592Z,101569.16
2023-05-13T04:03:59.248Z,101573.84
2023-05-13T04:06:25.861Z,101576.13
2023-05-13T04:08:52.490Z,101582.78
2023-05-13T04:11:19.109Z,101586.53
2023-05-13T04:13:46.118Z,101590.94
2023-05-13T04:16:12.768Z,101593.88
2023-05-13T04:18:39.369Z,101592.75
2023-05-13T04:21:09.955Z,101599.34
2023-05-13T04:23:36.642Z,101606.78
2023-05-13T04:26:03.302Z,101605.66
2023-05-13T04:28:30.012Z,101607.44
2023-05-13T04:30:56.633Z,101606.13
2023-05-13T04:33:23.210Z,101616.00
2023-05-13T04:35:49.859Z,101609.16
2023-05-13T04:38:16.428Z,101619.19
2023-05-13T04:40:44.386Z,101621.66
2023-05-13T04:43:14.365Z,101618.72
2023-05-13T04:45:41.320Z,101616.47
2023-05-13T04:48:08.258Z,101629.88
2023-05-13T04:50:34.953Z,101631.59
2023-05-13T04:53:01.997Z,101633.53
2023-05-13T04:55:28.583Z,101634.66
2023-05-13T04:57:55.295Z,101631.63
2023-05-13T05:00:22.045Z,101634.47
2023-05-13T05:02:48.950Z,101638.09
2023-05-13T05:05:18.184Z,101635.31
2023-05-13T05:07:45.249Z,101635.09
2023-05-13T05:10:11.905Z,101639.81
2023-05-13T05:12:38.600Z,101638.69
2023-05-13T05:15:06.414Z,101643.88
2023-05-13T05:17:34.106Z,101649.69
2023-05-13T05:20:00.876Z,101649.38
2023-05-13T05:22:27.537Z,101648.84
2023-05-13T05:24:54.129Z,101650.88
2023-05-13T05:27:20.733Z,101652.84
2023-05-13T05:29:47.322Z,101658.66
2023-05-13T05:32:14.052Z,101660.22
2023-05-13T05:34:41.016Z,101657.03
2023-05-13T05:37:07.684Z,101663.28
2023-05-13T05:39:35.289Z,101657.69
2023-05-13T05:42:02.149Z,101669.22
2023-05-13T05:44:28.955Z,101669.00
2023-05-13T05:46:55.647Z,101672.41
2023-05-13T05:49:22.270Z,101671.09
2023-05-13T05:51:48.933Z,101671.72
2023-05-13T05:54:15.523Z,101677.56
2023-05-13T05:56:42.614Z,101672.38
2023-05-13T05:59:09.269Z,101679.38
2023-05-13T06:01:36.932Z,101672.06
2023-05-13T06:04:04.381Z,101683.13
2023-05-13T06:06:32.368Z,101678.69
2023-05-13T06:08:59.148Z,101682.06
2023-05-13T06:11:26.309Z,101685.56
2023-05-13T06:13:54.277Z,101682.25
2023-05-13T06:16:20.924Z,101683.72
2023-05-13T06:18:47.656Z,101677.31
2023-05-13T06:21:14.293Z,101679.72
2023-05-13T06:23:41.053Z,101676.75
2023-05-13T06:26:07.752Z,101674.06
2023-05-13T06:28:34.324Z,101675.84
2023-05-13T06:31:00.946Z,101683.84
2023-05-13T06:33:27.613Z,101674.00
2023-05-13T06:35:54.324Z,101680.19
2023-05-13T06:38:21.122Z,101680.13
2023-05-13T06:40:47.926Z,101681.78
2023-05-13T06:43:16.449Z,101673.63
2023-05-13T06:45:43.199Z,101678.94
2023-05-13T06:48:10.233Z,101677.88
2023-05-13T06:50:36.908Z,101680.22
2023-05-13T06:53:03.531Z,101676.53
2023-05-13T06:55:30.167Z,101673.84
2023-05-13T06:57:56.876Z,101668.69
2023-05-13T07:00:24.092Z,101668.53
2023-05-13T07:02:50.954Z,101669.97
2023-05-13T07:05:17.730Z,101663.84
2023-05-13T07:07:44.403Z,101660.56
2023-05-13T07:10:11.182Z,101664.25
2023-05-13T07:12:37.808Z,101661.34
2023-05-13T07:15:05.412Z,101654.06
2023-05-13T07:17:32.274Z,101651.69
2023-05-13T07:19:59.309Z,101656.19
2023-05-13T07:22:25.896Z,101649.44
2023-05-13T07:24:52.501Z,101649.16
2023-05-13T07:27:19.205Z,101653.50
2023-05-13T07:29:45.965Z,101645.53
2023-05-13T07:32:12.582Z,101647.75
2023-05-13T07:34:39.566Z,101647.75
2023-05-13T07:37:06.244Z,101638.13
2023-05-13T07:39:32.849Z,101653.03
2023-05-13T07:41:59.520Z,101653.16
2023-05-13T07:44:26.603Z,101641.00
2023-05-13T07:46:53.810Z,101646.03
2023-05-13T07:49:22.688Z,101641.44
2023-05-13T07:51:49.350Z,101636.78
2023-05-13T07:54:15.941Z,101637.75
2023-05-13T07:56:44.371Z,101640.31
2023-05-13T07:59:11.178Z,101647.94
2023-05-13T08:01:38.045Z,101634.38
2023-05-13T08:04:04.879Z,101640.09
2023-05-13T08:06:32.794Z,101644.66
2023-05-13T08:08:59.841Z,101651.84
2023-05-13T08:11:26.920Z,101644.47
2023-05-13T08:13:54.921Z,101654.56
2023-05-13T08:16:21.718Z,101649.81
2023-05-13T08:18:48.368Z,101646.69
2023-05-13T08:21:15.102Z,101647.09
2023-05-13T08:23:45.789Z,101638.97
2023-05-13T08:26:13.893Z,101640.09
2023-05-13T08:28:42.458Z,101649.56
2023-05-13T08:31:12.078Z,101646.59
2023-05-13T08:33:39.902Z,101658.03
2023-05-13T08:36:06.998Z,101652.81
2023-05-13T08:38:33.719Z,101663.34
2023-05-13T08:41:00.482Z,101653.66
2023-05-13T08:43:28.585Z,101656.25
2023-05-13T08:45:56.743Z,101660.88
2023-05-13T08:48:24.379Z,101664.66
2023-05-13T08:50:51.264Z,101668.19
2023-05-13T08:53:18.881Z,101659.28
2023-05-13T08:55:45.720Z,101667.09
2023-05-13T08:58:12.638Z,101654.94
2023-05-13T09:00:39.845Z,101654.69
2023-05-13T09:03:07.176Z,101657.78
2023-05-13T09:05:35.730Z,101658.44
2023-05-13T09:08:10.851Z,101653.38
2023-05-13T09:10:37.681Z,101652.16
2023-05-13T09:13:04.869Z,101647.56
2023-05-13T09:15:32.213Z,101643.56
2023-05-13T09:18:01.770Z,101646.56
2023-05-13T09:20:29.128Z,101643.97
2023-05-13T09:23:00.799Z,101640.50
2023-05-13T09:25:28.338Z,101637.78
2023-05-13T09:28:00.457Z,101648.88
2023-05-13T09:30:33.584Z,101636.75
2023-05-13T09:33:11.304Z,101648.44
2023-05-13T09:35:40.592Z,101654.44
2023-05-13T09:38:14.528Z,101645.63
2023-05-13T09:40:41.878Z,101638.09
2023-05-13T09:43:08.851Z,101638.31
2023-05-13T09:45:36.286Z,101633.81
2023-05-13T09:48:03.419Z,101637.59
2023-05-13T09:50:31.737Z,101645.28
2023-05-13T09:52:58.532Z,101648.22
2023-05-13T09:55:25.128Z,101637.88
2023-05-13T09:57:53.346Z,101632.59
2023-05-13T10:00:31.705Z,101633.41
2023-05-13T10:03:01.329Z,101637.31
2023-05-13T10:05:28.001Z,101626.25
2023-05-13T10:07:55.880Z,101626.25
2023-05-13T10:10:23.040Z,101630.03
2023-05-13T10:12:51.022Z,101622.00
2023-05-13T10:15:18.659Z,101615.84
2023-05-13T10:17:46.657Z,101616.34
2023-05-13T10:20:13.909Z,101624.88
2023-05-13T10:22:41.021Z,101626.38
2023-05-13T10:25:08.747Z,101615.53
2023-05-13T10:27:35.322Z,101619.03
2023-05-13T10:30:03.906Z,101633.91
2023-05-13T10:32:31.650Z,101618.19
2023-05-13T10:35:13.731Z,101617.03
2023-05-13T10:37:59.087Z,101620.00
2023-05-13T10:40:47.123Z,101626.53
2023-05-13T10:43:25.681Z,101616.81
2023-05-13T10:46:04.363Z,101627.63
2023-05-13T10:48:59.338Z,101620.59
2023-05-13T10:51:26.681Z,101617.38
2023-05-13T10:53:58.947Z,101608.72
2023-05-13T10:56:27.943Z,101611.34
2023-05-13T10:59:07.000Z,101610.00
2023-05-13T11:01:43.932Z,101604.50
2023-05-13T11:04:20.369Z,101610.00
2023-05-13T11:06:50.869Z,101593.44
2023-05-13T11:09:20.464Z,101613.34
2023-05-13T11:11:48.544Z,101608.31
2023-05-13T11:14:23.894Z,101613.34
2023-05-13T11:17:19.196Z,101595.13
2023-05-13T11:19:51.057Z,101603.47
2023-05-13T11:22:22.466Z,101597.78
2023-05-13T11:25:09.853Z,101601.75
2023-05-13T11:27:42.270Z,101606.66
2023-05-13T11:30:22.683Z,101590.91
2023-05-13T11:32:57.312Z,101598.63
2023-05-13T11:35:31.840Z,101593.66
2023-05-13T11:38:00.633Z,101596.19
2023-05-13T11:40:37.684Z,101590.00
2023-05-13T11:43:07.543Z,101594.97
2023-05-13T11:45:39.380Z,101599.97
2023-05-13T11:48:33.881Z,101591.44
2023-05-13T11:51:00.553Z,101588.75
2023-05-13T11:53:27.689Z,101597.72
2023-05-13T11:55:55.602Z,101588.25
2023-05-13T11:58:35.036Z,101582.09
2023-05-13T12:01:04.821Z,101580.22
2023-05-13T12:03:32.005Z,101579.38
2023-05-13T12:11:41.381Z,101572.72
2023-05-13T12:14:16.006Z,101568.75
2023-05-13T12:16:56.840Z,101572.25
2023-05-13T12:19:23.471Z,101582.81
2023-05-13T12:21:51.683Z,101582.44
2023-05-13T12:24:29.811Z,101584.38
2023-05-13T12:27:11.652Z,101571.59
2023-05-13T12:29:47.774Z,101572.66
2023-05-13T12:32:16.924Z,101583.59
2023-05-13T12:34:53.370Z,101584.69
2023-05-13T12:37:25.389Z,101570.13
2023-05-13T12:40:09.535Z,101569.53
2023-05-13T12:42:36.184Z,101577.25
2023-05-13T12:45:03.417Z,101586.06
2023-05-13T12:47:30.078Z,101577.34
2023-05-13T12:49:59.957Z,101576.31
2023-05-13T12:52:26.813Z,101576.03
2023-05-13T12:54:53.438Z,101577.88
2023-05-13T12:57:20.665Z,101574.22
2023-05-13T12:59:47.301Z,101582.50
2023-05-13T13:02:13.906Z,101577.50
2023-05-13T13:04:40.817Z,101569.53
2023-05-13T13:07:11.995Z,101559.56
2023-05-13T13:09:38.726Z,101565.34
2023-05-13T13:12:05.782Z,101569.88
2023-05-13T13:14:32.370Z,101555.69
2023-05-13T13:16:58.953Z,101560.84
2023-05-13T13:19:25.673Z,101555.59
2023-05-13T13:21:52.374Z,101567.00
2023-05-13T13:24:19.019Z,101551.78
2023-05-13T13:26:45.906Z,101551.59
2023-05-13T13:29:12.512Z,101564.59
2023-05-13T13:31:39.194Z,101558.66
2023-05-13T13:34:06.150Z,101562.50
2023-05-13T13:36:32.978Z,101564.34
2023-05-13T13:38:59.604Z,101561.78
2023-05-13T13:41:26.318Z,101563.69
2023-05-13T13:43:52.967Z,101547.44
2023-05-13T13:46:20.090Z,101550.63
2023-05-13T13:48:46.747Z,101554.47
2023-05-13T13:51:13.301Z,101547.59
2023-05-13T13:53:39.929Z,101549.69
2023-05-13T13:56:07.122Z,101545.75
2023-05-13T13:58:33.835Z,101542.09
2023-05-13T14:01:00.469Z,101545.25
2023-05-13T14:03:27.352Z,101538.91
2023-05-13T14:05:55.306Z,101537.34
2023-05-13T14:08:21.953Z,101532.13
2023-05-13T14:10:48.591Z,101535.81
2023-05-13T14:13:15.208Z,101533.97
2023-05-13T14:15:41.809Z,101527.56
2023-05-13T14:18:08.578Z,101526.78
2023-05-13T14:20:35.900Z,101527.69
2023-05-13T14:23:03.836Z,101521.72
2023-05-13T14:25:32.344Z,101531.91
2023-05-13T14:27:58.905Z,101523.94
2023-05-13T14:30:27.776Z,101525.44
2023-05-13T14:32:54.643Z,101517.75
2023-05-13T14:35:21.374Z,101511.91
2023-05-13T14:37:47.949Z,101512.88
2023-05-13T14:40:14.617Z,101517.56
2023-05-13T14:42:41.290Z,101518.06
2023-05-13T14:45:09.298Z,101517.44
2023-05-13T14:47:37.577Z,101522.06
2023-05-13T14:50:04.584Z,101519.56
2023-05-13T14:52:31.349Z,101517.38
2023-05-13T14:54:57.999Z,101524.19
2023-05-13T14:57:24.618Z,101520.94
2023-05-13T14:59:51.220Z,101515.22
2023-05-13T15:02:17.970Z,101519.38
2023-05-13T15:04:44.718Z,101519.41
2023-05-13T15:07:11.398Z,101514.41
2023-05-13T15:09:38.014Z,101511.53
2023-05-13T15:12:04.940Z,101509.75
2023-05-13T15:14:31.547Z,101510.69
2023-05-13T15:16:58.304Z,101522.38
2023-05-13T15:19:24.986Z,101524.22
2023-05-13T15:21:51.586Z,101517.56
2023-05-13T15:24:18.219Z,101525.28
2023-05-13T15:26:44.773Z,101518.13
2023-05-13T15:29:11.346Z,101519.63
2023-05-13T15:31:37.949Z,101515.88
2023-05-13T15:34:04.586Z,101514.41
2023-05-13T15:36:32.795Z,101512.47
2023-05-13T15:39:00.535Z,101505.38
2023-05-13T15:41:28.834Z,101507.91
2023-05-13T15:43:55.543Z,101508.03
2023-05-13T15:46:23.955Z,101519.44
2023-05-13T15:48:50.651Z,101513.66
2023-05-13T15:51:18.316Z,101509.81
2023-05-13T15:53:44.867Z,101505.06
2023-05-13T15:56:11.545Z,101509.38
2023-05-13T15:58:38.200Z,101506.81
2023-05-13T16:01:05.028Z,101503.28
2023-05-13T16:03:31.702Z,101505.06
2023-05-13T16:05:58.482Z,101506.16
2023-05-13T16:08:25.295Z,101508.25
2023-05-13T16:10:51.858Z,101510.19
2023-05-13T16:13:18.525Z,101518.44
2023-05-13T16:15:45.101Z,101518.72
2023-05-13T16:18:11.834Z,101519.22
2023-05-13T16:20:38.534Z,101524.75
2023-05-13T16:23:05.221Z,101533.31
2023-05-13T16:25:32.052Z,101543.31
2023-05-13T16:27:58.847Z,101534.03
2023-05-13T16:30:25.649Z,101549.84
2023-05-13T16:32:55.058Z,101550.38
2023-05-13T16:35:22.126Z,101540.06
2023-05-13T16:37:49.629Z,101542.19
2023-05-13T16:40:16.402Z,101544.84
2023-05-13T16:42:43.225Z,101545.94
2023-05-13T16:45:10.095Z,101552.50
2023-05-13T16:47:37.926Z,101556.03
2023-05-13T16:50:05.022Z,101559.56
2023-05-13T16:52:32.601Z,101570.00
2023-05-13T16:54:59.370Z,101570.69
2023-05-13T16:57:26.130Z,101574.63
2023-05-13T16:59:52.675Z,101575.00
2023-05-13T17:02:19.325Z,101585.50
2023-05-13T17:04:45.934Z,101582.69
2023-05-13T17:07:12.527Z,101576.69
2023-05-13T17:09:39.134Z,101570.69
2023-05-13T17:12:06.067Z,101572.66
2023-05-13T17:14:32.656Z,101574.19
2023-05-13T17:16:59.322Z,101574.19
2023-05-13T17:19:25.928Z,101570.75
2023-05-13T17:21:52.701Z,101573.47
2023-05-13T17:24:19.364Z,101576.22
2023-05-13T17:26:45.960Z,101568.22
2023-05-13T17:29:12.514Z,101573.91
2023-05-13T17:31:39.331Z,101570.13
2023-05-13T17:34:06.376Z,101568.34
2023-05-13T17:36:33.214Z,101566.50
2023-05-13T17:38:59.797Z,101569.78
2023-05-13T17:41:26.428Z,101571.59
2023-05-13T17:43:53.054Z,101571.00
2023-05-13T17:46:19.608Z,101574.72
2023-05-13T17:48:46.350Z,101577.44
2023-05-13T17:51:12.953Z,101574.78
2023-05-13T17:53:39.581Z,101580.78
2023-05-13T17:56:08.295Z,101581.88
2023-05-13T17:58:34.886Z,101573.34
2023-05-13T18:01:01.555Z,101584.03
2023-05-13T18:03:28.442Z,101580.38
2023-05-13T18:05:55.304Z,101591.38
2023-05-13T18:08:21.891Z,101587.22
2023-05-13T18:10:48.784Z,101585.16
2023-05-13T18:13:15.439Z,101580.28
2023-05-13T18:15:42.169Z,101582.75
2023-05-13T18:18:09.883Z,101583.84
2023-05-13T18:20:36.565Z,101583.50
2023-05-13T18:23:03.158Z,101581.69
2023-05-13T18:25:31.163Z,101582.06
2023-05-13T18:27:57.743Z,101581.19
2023-05-13T18:30:24.756Z,101583.75
2023-05-13T18:32:51.593Z,101578.84
2023-05-13T18:35:21.332Z,101587.41
2023-05-13T18:37:47.966Z,101585.44
2023-05-13T18:40:14.566Z,101584.88
2023-05-13T18:42:41.148Z,101582.19
2023-05-13T18:45:08.240Z,101579.44
2023-05-13T18:47:34.963Z,101578.84
2023-05-13T18:50:01.796Z,101590.66
2023-05-13T18:52:28.387Z,101587.53
2023-05-13T18:54:54.974Z,101588.03
2023-05-13T18:57:21.718Z,101586.94
2023-05-13T18:59:48.393Z,101586.69
2023-05-13T19:02:15.379Z,101585.50
2023-05-13T19:04:42.136Z,101594.16
2023-05-13T19:07:08.722Z,101595.84
2023-05-13T19:09:36.081Z,101588.75
2023-05-13T19:12:02.873Z,101588.03
2023-05-13T19:14:29.718Z,101589.19
2023-05-13T19:16:56.408Z,101587.22
2023-05-13T19:19:24.351Z,101590.66
2023-05-13T19:21:51.139Z,101589.78
2023-05-13T19:24:17.722Z,101591.63
2023-05-13T19:26:44.386Z,101587.25
2023-05-13T19:29:11.113Z,101586.28
2023-05-13T19:31:37.905Z,101582.22
2023-05-13T19:34:04.571Z,101585.94
2023-05-13T19:36:31.796Z,101584.91
2023-05-13T19:38:58.560Z,101591.91
2023-05-13T19:41:25.266Z,101599.41
2023-05-13T19:43:51.858Z,101594.00
2023-05-13T19:46:18.602Z,101597.41
2023-05-13T19:48:45.410Z,101595.53
2023-05-13T19:51:11.986Z,101594.28
2023-05-13T19:53:38.688Z,101588.69
2023-05-13T19:56:05.332Z,101595.84
2023-05-13T19:58:32.069Z,101590.59
2023-05-13T20:00:59.182Z,101587.38
2023-05-13T20:03:25.917Z,101588.22
2023-05-13T20:05:53.962Z,101591.19
2023-05-13T20:08:21.114Z,101593.38
2023-05-13T20:10:47.741Z,101597.34
2023-05-13T20:13:14.553Z,101594.38
2023-05-13T20:15:42.248Z,101596.69
2023-05-13T20:18:10.065Z,101596.19
2023-05-13T20:20:36.940Z,101598.69
2023-05-13T20:23:03.622Z,101594.56
2023-05-13T20:25:30.342Z,101595.34
2023-05-13T20:27:56.944Z,101603.56
2023-05-13T20:30:23.979Z,101602.16
2023-05-13T20:32:50.926Z,101606.22
2023-05-13T20:35:17.557Z,101602.81
2023-05-13T20:37:44.201Z,101597.03
2023-05-13T20:40:12.384Z,101601.72
2023-05-13T20:42:38.999Z,101606.22
2023-05-13T20:45:08.104Z,101594.22
2023-05-13T20:47:35.119Z,101593.38
2023-05-13T20:50:01.764Z,101596.50
2023-05-13T20:52:28.406Z,101597.50
2023-05-13T20:54:55.039Z,101588.22
2023-05-13T20:57:21.684Z,101594.81
2023-05-13T20:59:50.431Z,101586.72
2023-05-13T21:02:17.095Z,101587.56
2023-05-13T21:04:43.686Z,101584.38
2023-05-13T21:07:10.779Z,101588.16
2023-05-13T21:09:37.445Z,101592.34
2023-05-13T21:12:04.306Z,101589.81
2023-05-13T21:14:30.980Z,101594.13
2023-05-13T21:16:57.541Z,101590.66
2023-05-13T21:19:25.009Z,101592.63
2023-05-13T21:21:51.725Z,101587.09
2023-05-13T21:24:20.005Z,101590.53
2023-05-13T21:26:47.368Z,101591.69
2023-05-13T21:29:13.942Z,101593.50
2023-05-13T21:31:40.678Z,101586.72
2023-05-13T21:34:07.346Z,101595.66
2023-05-13T21:36:34.036Z,101588.88
2023-05-13T21:39:00.719Z,101582.28
2023-05-13T21:41:27.415Z,101588.50
2023-05-13T21:43:53.984Z,101584.47
2023-05-13T21:46:20.708Z,101588.94
2023-05-13T21:48:47.438Z,101586.22
2023-05-13T21:51:14.250Z,101592.50
2023-05-13T21:53:40.823Z,101584.97
2023-05-13T21:56:07.493Z,101586.00
2023-05-13T21:58:34.096Z,101586.19
2023-05-13T22:01:01.367Z,101587.88
2023-05-13T22:03:28.173Z,101586.25
2023-05-13T22:05:54.784Z,101581.88
2023-05-13T22:08:22.421Z,101581.38
2023-05-13T22:10:49.121Z,101584.25
2023-05-13T22:13:15.762Z,101585.28
2023-05-13T22:15:42.471Z,101575.88
2023-05-13T22:18:09.387Z,101581.91
2023-05-13T22:20:36.172Z,101575.81
2023-05-13T22:23:02.833Z,101575.06
2023-05-13T22:25:29.445Z,101579.53
2023-05-13T22:27:56.167Z,101574.53
2023-05-13T22:30:23.216Z,101573.63
2023-05-13T22:32:51.760Z,101568.38
2023-05-13T22:35:18.400Z,101568.47
2023-05-13T22:37:45.060Z,101569.22
2023-05-13T22:40:12.124Z,101573.13
2023-05-13T22:42:38.732Z,101574.75
2023-05-13T22:45:05.730Z,101572.53
2023-05-13T22:47:32.394Z,101575.16
2023-05-13T22:49:59.025Z,101574.41
2023-05-13T22:52:25.677Z,101579.56
2023-05-13T22:54:52.286Z,101568.03
2023-05-13T22:57:18.872Z,101568.81
2023-05-13T22:59:45.677Z,101581.06
2023-05-13T23:02:12.276Z,101571.63
2023-05-13T23:04:39.012Z,101572.72
2023-05-13T23:07:05.747Z,101570.44
2023-05-13T23:09:32.339Z,101564.28
2023-05-13T23:11:58.881Z,101563.53
2023-05-13T23:14:25.726Z,101567.22
2023-05-13T23:16:52.338Z,101564.88
2023-05-13T23:19:18.994Z,101563.25
2023-05-13T23:21:45.604Z,101562.50
2023-05-13T23:24:12.306Z,101564.38
2023-05-13T23:26:38.939Z,101559.88
2023-05-13T23:29:05.591Z,101558.09
2023-05-13T23:31:32.257Z,101561.00
2023-05-13T23:33:58.829Z,101554.13
2023-05-13T23:36:25.449Z,101557.03
2023-05-13T23:38:52.157Z,101551.94
2023-05-13T23:41:18.778Z,101557.25
2023-05-13T23:43:45.413Z,101548.72
2023-05-13T23:46:12.086Z,101548.63
2023-05-13T23:48:38.687Z,101542.56
2023-05-13T23:51:05.746Z,101541.84
2023-05-13T23:53:32.466Z,101544.59
2023-05-13T23:55:59.045Z,101550.81
2023-05-13T23:58:25.743Z,101546.78
